createdAt,value
2022-12-18T00:01:35.870Z,-2.34
2022-12-18T00:04:06.783Z,-2.22
2022-12-18T00:06:35.652Z,-2.18
2022-12-18T00:09:04.371Z,-2.20
2022-12-18T00:11:32.831Z,-2.16
2022-12-18T00:14:01.310Z,-2.15
2022-12-18T00:16:31.067Z,-2.31
2022-12-18T00:18:58.446Z,-2.23
2022-12-18T00:21:26.765Z,-2.25
2022-12-18T00:23:54.763Z,-2.52
2022-12-18T00:26:33.751Z,-2.29
2022-12-18T00:29:14.891Z,-2.62
2022-12-18T00:31:44.683Z,-2.53
2022-12-18T00:34:13.804Z,-2.30
2022-12-18T00:36:42.110Z,-2.40
2022-12-18T00:39:11.754Z,-2.36
2022-12-18T00:41:57.887Z,-2.61
2022-12-18T00:44:26.390Z,-2.46
2022-12-18T00:46:53.709Z,-2.52
2022-12-18T00:49:21.683Z,-2.45
2022-12-18T00:51:49.023Z,-2.63
2022-12-18T00:54:17.181Z,-2.61
2022-12-18T00:56:49.407Z,-2.56
2022-12-18T00:59:18.664Z,-2.61
2022-12-18T01:01:46.527Z,-2.58
2022-12-18T01:04:15.003Z,-2.63
2022-12-18T01:06:45.162Z,-2.60
2022-12-18T01:09:12.552Z,-2.80
2022-12-18T01:11:40.376Z,-2.75
2022-12-18T01:14:07.785Z,-2.62
2022-12-18T01:16:35.201Z,-2.60
2022-12-18T01:19:05.664Z,-2.66
2022-12-18T01:21:33.724Z,-2.74
2022-12-18T01:24:05.382Z,-2.63
2022-12-18T01:26:32.784Z,-2.75
2022-12-18T01:29:00.393Z,-2.66
2022-12-18T01:31:30.931Z,-2.69
2022-12-18T01:34:01.016Z,-2.95
2022-12-18T01:36:31.258Z,-2.71
2022-12-18T01:39:02.060Z,-2.90
2022-12-18T01:41:51.081Z,-2.81
2022-12-18T01:44:49.372Z,-2.70
2022-12-18T01:47:34.861Z,-2.83
2022-12-18T01:50:08.429Z,-2.90
2022-12-18T01:52:46.064Z,-2.78
2022-12-18T01:55:16.117Z,-3.18
2022-12-18T01:57:44.002Z,-2.89
2022-12-18T02:00:16.986Z,-3.20
2022-12-18T02:02:46.252Z,-3.31
2022-12-18T02:05:18.941Z,-3.14
2022-12-18T02:08:10.566Z,-2.98
2022-12-18T02:10:48.567Z,-2.91
2022-12-18T02:13:57.384Z,-3.07
2022-12-18T02:16:36.848Z,-3.17
2022-12-18T02:19:33.514Z,-3.44
2022-12-18T02:22:42.943Z,-3.63
2022-12-18T02:25:28.807Z,-3.72
2022-12-18T02:28:01.460Z,-3.27
2022-12-18T02:30:34.739Z,-3.16
2022-12-18T02:33:05.050Z,-3.31
2022-12-18T02:35:36.317Z,-3.04
2022-12-18T02:38:05.390Z,-3.01
2022-12-18T02:40:38.645Z,-2.96
2022-12-18T02:43:13.183Z,-2.69
2022-12-18T02:46:30.205Z,-2.61
2022-12-18T02:49:06.538Z,-2.67
2022-12-18T02:51:46.110Z,-2.74
2022-12-18T02:54:22.076Z,-2.66
2022-12-18T02:56:56.798Z,-2.68
2022-12-18T02:59:45.050Z,-2.54
2022-12-18T03:02:16.176Z,-2.46
2022-12-18T03:04:54.159Z,-2.46
2022-12-18T03:07:28.811Z,-2.41
2022-12-18T03:10:00.043Z,-2.44
2022-12-18T03:12:35.670Z,-2.33
2022-12-18T03:15:29.605Z,-2.35
2022-12-18T03:18:14.582Z,-2.36
2022-12-18T03:20:45.161Z,-2.42
2022-12-18T03:23:26.321Z,-2.50
2022-12-18T03:25:57.713Z,-2.51
2022-12-18T03:28:31.520Z,-2.28
2022-12-18T03:31:06.161Z,-2.31
2022-12-18T03:33:41.214Z,-2.44
2022-12-18T03:36:09.392Z,-2.09
2022-12-18T03:38:36.882Z,-2.16
2022-12-18T03:41:32.727Z,-2.04
2022-12-18T03:44:24.955Z,-2.03
2022-12-18T03:47:15.199Z,-2.06
2022-12-18T03:49:54.934Z,-2.02
2022-12-18T03:52:29.348Z,-1.97
2022-12-18T03:55:00.558Z,-2.08
2022-12-18T03:57:32.356Z,-1.94
2022-12-18T04:00:06.046Z,-1.92
2022-12-18T04:02:48.310Z,-1.97
2022-12-18T04:05:25.655Z,-1.86
2022-12-18T04:07:54.959Z,-1.87
2022-12-18T04:10:23.121Z,-1.85
2022-12-18T04:12:51.917Z,-1.91
2022-12-18T04:15:19.963Z,-1.87
2022-12-18T04:17:51.113Z,-2.11
2022-12-18T04:20:22.259Z,-1.92
2022-12-18T04:22:49.593Z,-1.78
2022-12-18T04:25:18.778Z,-1.87
2022-12-18T04:28:05.426Z,-1.81
2022-12-18T04:30:33.638Z,-1.67
2022-12-18T04:33:01.030Z,-1.89
2022-12-18T04:35:31.174Z,-1.66
2022-12-18T04:37:58.543Z,-1.95
2022-12-18T04:40:25.984Z,-1.79
2022-12-18T04:42:53.511Z,-1.68
2022-12-18T04:45:20.853Z,-1.58
2022-12-18T04:47:48.133Z,-1.58
2022-12-18T04:50:15.672Z,-1.58
2022-12-18T04:52:43.006Z,-1.68
2022-12-18T04:55:10.305Z,-1.72
2022-12-18T04:57:37.685Z,-1.65
2022-12-18T05:00:07.013Z,-1.61
2022-12-18T05:02:34.429Z,-1.76
2022-12-18T05:05:01.848Z,-1.68
2022-12-18T05:07:29.108Z,-1.66
2022-12-18T05:09:56.486Z,-1.68
2022-12-18T05:12:24.815Z,-1.56
2022-12-18T05:14:52.437Z,-1.61
2022-12-18T05:17:19.733Z,-1.76
2022-12-18T05:19:47.058Z,-1.75
2022-12-18T05:22:14.486Z,-1.63
2022-12-18T05:24:41.783Z,-1.79
2022-12-18T05:27:09.067Z,-1.72
2022-12-18T05:29:36.368Z,-1.66
2022-12-18T05:32:03.803Z,-1.56
2022-12-18T05:34:31.129Z,-1.56
2022-12-18T05:36:58.441Z,-1.55
2022-12-18T05:39:25.881Z,-1.56
2022-12-18T05:41:53.152Z,-1.66
2022-12-18T05:44:20.484Z,-1.50
2022-12-18T05:46:47.851Z,-1.51
2022-12-18T05:49:15.200Z,-1.47
2022-12-18T05:51:42.520Z,-1.53
2022-12-18T05:54:10.101Z,-1.57
2022-12-18T05:56:37.598Z,-1.54
2022-12-18T05:59:04.930Z,-1.63
2022-12-18T06:01:32.304Z,-1.63
2022-12-18T06:04:00.008Z,-1.77
2022-12-18T06:06:28.735Z,-1.74
2022-12-18T06:08:57.560Z,-1.76
2022-12-18T06:11:27.475Z,-1.95
2022-12-18T06:13:58.704Z,-1.87
2022-12-18T06:16:28.138Z,-2.01
2022-12-18T06:19:03.563Z,-1.93
2022-12-18T06:21:31.993Z,-2.01
2022-12-18T06:24:00.641Z,-2.20
2022-12-18T06:26:28.683Z,-1.97
2022-12-18T06:28:56.531Z,-1.96
2022-12-18T06:31:24.209Z,-2.02
2022-12-18T06:33:51.669Z,-1.89
2022-12-18T06:36:19.289Z,-1.89
2022-12-18T06:38:46.730Z,-1.75
2022-12-18T06:41:19.998Z,-1.82
2022-12-18T06:43:47.845Z,-2.02
2022-12-18T06:46:15.293Z,-1.95
2022-12-18T06:48:42.845Z,-1.83
2022-12-18T06:51:10.116Z,-1.91
2022-12-18T06:53:37.875Z,-1.78
2022-12-18T06:56:10.409Z,-1.88
2022-12-18T06:58:39.769Z,-1.89
2022-12-18T07:01:09.575Z,-1.82
2022-12-18T07:03:38.657Z,-1.43
2022-12-18T07:06:07.062Z,-1.40
2022-12-18T07:08:34.373Z,-1.36
2022-12-18T07:11:04.795Z,-1.34
2022-12-18T07:13:32.861Z,-1.23
2022-12-18T07:16:16.007Z,-1.14
2022-12-18T07:18:45.054Z,-0.95
2022-12-18T07:21:16.463Z,-1.11
2022-12-18T07:23:44.785Z,-0.96
2022-12-18T07:26:13.629Z,-0.99
2022-12-18T07:28:42.332Z,-1.07
2022-12-18T07:31:16.047Z,-1.12
2022-12-18T07:33:43.656Z,-1.01
2022-12-18T07:36:11.703Z,-0.99
2022-12-18T07:38:39.567Z,-0.96
2022-12-18T07:41:15.072Z,-1.12
2022-12-18T07:43:43.219Z,-1.34
2022-12-18T07:46:13.450Z,-0.90
2022-12-18T07:48:42.478Z,-0.97
2022-12-18T07:51:11.189Z,-0.93
2022-12-18T07:53:39.281Z,-0.98
2022-12-18T07:56:28.563Z,-0.86
2022-12-18T07:58:57.086Z,-1.20
2022-12-18T08:01:24.860Z,-0.82
2022-12-18T08:03:52.708Z,-0.85
2022-12-18T08:06:23.767Z,-0.68
2022-12-18T08:08:55.805Z,-0.66
2022-12-18T08:11:25.376Z,-0.79
2022-12-18T08:13:53.385Z,-0.57
2022-12-18T08:16:21.710Z,-0.71
2022-12-18T08:18:49.729Z,-1.00
2022-12-18T08:21:24.059Z,-0.97
2022-12-18T08:23:56.378Z,-0.88
2022-12-18T08:26:26.278Z,-0.98
2022-12-18T08:28:54.810Z,-0.84
2022-12-18T08:31:22.743Z,-0.84
2022-12-18T08:33:53.746Z,-0.93
2022-12-18T08:36:23.149Z,-1.58
2022-12-18T08:38:52.685Z,-1.22
2022-12-18T08:41:20.507Z,-0.95
2022-12-18T08:44:06.436Z,-1.19
2022-12-18T08:46:37.320Z,-1.02
2022-12-18T08:49:06.433Z,-0.94
2022-12-18T08:51:34.538Z,-1.38
2022-12-18T08:54:02.400Z,-1.14
2022-12-18T08:56:31.044Z,-1.05
2022-12-18T08:58:58.737Z,-0.75
2022-12-18T09:01:27.708Z,-0.55
2022-12-18T09:03:55.266Z,-0.53
2022-12-18T09:06:25.805Z,-0.64
2022-12-18T09:08:53.125Z,-0.83
2022-12-18T09:11:25.875Z,-0.54
2022-12-18T09:13:54.897Z,-0.63
2022-12-18T09:16:28.789Z,-0.85
2022-12-18T09:19:00.793Z,-0.75
2022-12-18T09:21:35.969Z,-0.62
2022-12-18T09:24:08.941Z,-0.40
2022-12-18T09:26:38.073Z,-0.35
2022-12-18T09:29:08.267Z,-0.23
2022-12-18T09:31:36.230Z,-0.29
2022-12-18T09:34:03.560Z,-0.31
2022-12-18T09:36:33.724Z,-0.11
2022-12-18T09:39:06.301Z,-0.17
2022-12-18T09:41:55.779Z,-0.16
2022-12-18T09:44:47.093Z,-0.41
2022-12-18T09:47:14.442Z,-0.09
2022-12-18T09:49:45.015Z,-0.08
2022-12-18T09:52:34.471Z,-0.16
2022-12-18T09:55:10.686Z,-0.12
2022-12-18T09:57:46.244Z,-0.02
2022-12-18T10:00:21.089Z,0.14
2022-12-18T10:02:50.042Z,0.15
2022-12-18T10:05:23.776Z,0.22
2022-12-18T10:07:56.339Z,0.28
2022-12-18T10:10:51.030Z,0.09
2022-12-18T10:13:22.687Z,0.47
2022-12-18T10:16:16.926Z,0.17
2022-12-18T10:19:11.575Z,0.28
2022-12-18T10:22:03.191Z,0.15
2022-12-18T10:24:36.487Z,0.33
2022-12-18T10:27:30.420Z,0.73
2022-12-18T10:29:58.776Z,0.80
2022-12-18T10:32:28.990Z,0.81
2022-12-18T10:35:00.842Z,0.65
2022-12-18T10:37:30.892Z,0.89
2022-12-18T10:40:19.931Z,0.75
2022-12-18T10:43:12.013Z,0.68
2022-12-18T10:45:39.235Z,0.84
2022-12-18T10:48:19.362Z,0.59
2022-12-18T10:53:38.523Z,0.90
2022-12-18T10:56:07.808Z,1.20
2022-12-18T10:58:40.905Z,1.51
2022-12-18T11:01:11.711Z,1.31
2022-12-18T11:03:42.481Z,1.28
2022-12-18T11:06:18.998Z,1.54
2022-12-18T11:09:00.192Z,1.37
2022-12-18T11:11:28.189Z,1.29
2022-12-18T11:14:02.954Z,1.74
2022-12-18T11:16:57.898Z,1.89
2022-12-18T11:19:37.466Z,1.85
2022-12-18T11:22:24.146Z,1.97
2022-12-18T11:28:01.553Z,2.34
2022-12-18T11:30:35.790Z,2.19
2022-12-18T11:33:23.184Z,2.31
2022-12-18T11:35:52.780Z,2.49
2022-12-18T11:38:40.353Z,2.47
2022-12-18T11:42:01.327Z,2.66
2022-12-18T11:44:42.093Z,2.56
2022-12-18T11:47:27.729Z,1.97
2022-12-18T11:50:00.517Z,1.62
2022-12-18T11:52:40.082Z,1.68
2022-12-18T11:55:30.028Z,2.01
2022-12-18T11:58:06.389Z,2.25
2022-12-18T12:00:41.427Z,2.27
2022-12-18T12:03:08.881Z,2.36
2022-12-18T12:05:36.244Z,2.59
2022-12-18T12:08:54.093Z,2.34
2022-12-18T12:11:57.477Z,2.09
2022-12-18T12:14:24.703Z,2.27
2022-12-18T12:17:00.202Z,2.18
2022-12-18T12:19:35.778Z,2.20
2022-12-18T12:22:22.468Z,2.33
2022-12-18T12:25:02.884Z,2.35
2022-12-18T12:27:42.516Z,2.12
2022-12-18T12:30:21.627Z,1.85
2022-12-18T12:33:19.364Z,2.29
2022-12-18T12:36:15.947Z,2.28
2022-12-18T12:38:52.522Z,2.25
2022-12-18T12:41:47.063Z,2.37
2022-12-18T12:44:21.085Z,2.19
2022-12-18T12:46:50.350Z,2.11
2022-12-18T12:49:25.361Z,2.17
2022-12-18T12:52:13.494Z,2.02
2022-12-18T12:54:42.140Z,1.93
2022-12-18T12:57:13.341Z,2.08
2022-12-18T13:00:05.643Z,2.21
2022-12-18T13:02:51.459Z,2.33
2022-12-18T13:05:59.655Z,2.28
2022-12-18T13:08:33.329Z,2.11
2022-12-18T13:11:21.393Z,1.96
2022-12-18T13:13:54.019Z,1.79
2022-12-18T13:16:27.542Z,2.07
2022-12-18T13:19:00.072Z,1.95
2022-12-18T13:21:33.537Z,1.98
2022-12-18T13:24:36.235Z,1.92
2022-12-18T13:27:42.467Z,1.78
2022-12-18T13:30:34.569Z,1.62
2022-12-18T13:33:14.633Z,1.48
2022-12-18T13:35:54.485Z,1.63
2022-12-18T13:38:22.189Z,1.73
2022-12-18T13:40:49.529Z,1.61
2022-12-18T13:43:28.927Z,1.25
2022-12-18T13:46:07.762Z,1.24
2022-12-18T13:48:39.210Z,1.20
2022-12-18T13:51:11.216Z,1.29
2022-12-18T13:53:47.665Z,1.41
2022-12-18T13:56:23.813Z,1.17
2022-12-18T13:59:16.567Z,1.36
2022-12-18T14:01:49.581Z,1.36
2022-12-18T14:04:22.410Z,1.34
2022-12-18T14:06:53.659Z,1.47
2022-12-18T14:09:37.101Z,1.35
2022-12-18T14:12:25.386Z,1.05
2022-12-18T14:14:54.970Z,1.12
2022-12-18T14:17:24.416Z,0.80
2022-12-18T14:19:52.718Z,0.84
2022-12-18T14:22:30.832Z,0.68
2022-12-18T14:25:13.493Z,0.89
2022-12-18T14:27:46.553Z,0.75
2022-12-18T14:30:46.432Z,0.44
2022-12-18T14:33:16.334Z,0.35
2022-12-18T14:35:54.059Z,0.27
2022-12-18T14:38:22.301Z,0.17
2022-12-18T14:40:54.953Z,0.11
2022-12-18T14:43:23.150Z,-0.25
2022-12-18T14:45:52.482Z,-0.23
2022-12-18T14:48:23.400Z,-0.42
2022-12-18T14:51:18.712Z,-0.71
2022-12-18T14:53:56.168Z,-0.85
2022-12-18T14:56:27.216Z,-1.06
2022-12-18T14:59:03.365Z,-1.06
2022-12-18T15:01:33.130Z,-1.11
2022-12-18T15:04:02.510Z,-1.38
2022-12-18T15:06:38.447Z,-1.28
2022-12-18T15:09:22.869Z,-1.40
2022-12-18T15:11:51.385Z,-1.54
2022-12-18T15:14:37.890Z,-1.62
2022-12-18T15:17:15.994Z,-1.84
2022-12-18T15:19:45.818Z,-1.88
2022-12-18T15:22:36.191Z,-1.84
2022-12-18T15:25:23.450Z,-1.96
2022-12-18T15:27:50.885Z,-2.00
2022-12-18T15:30:21.113Z,-2.11
2022-12-18T15:32:49.862Z,-2.21
2022-12-18T15:35:23.508Z,-2.41
2022-12-18T15:37:52.574Z,-2.62
2022-12-18T15:40:22.625Z,-2.60
2022-12-18T15:43:13.496Z,-2.51
2022-12-18T15:45:40.989Z,-2.64
2022-12-18T15:48:26.490Z,-2.81
2022-12-18T15:50:57.796Z,-3.04
2022-12-18T15:53:28.958Z,-2.89
2022-12-18T15:56:14.808Z,-3.24
2022-12-18T15:58:42.200Z,-2.93
2022-12-18T16:01:11.431Z,-3.00
2022-12-18T16:03:39.378Z,-3.04
2022-12-18T16:06:07.292Z,-3.03
2022-12-18T16:08:37.446Z,-3.03
2022-12-18T16:11:07.107Z,-3.17
2022-12-18T16:13:34.453Z,-3.16
2022-12-18T16:16:02.169Z,-3.29
2022-12-18T16:18:29.698Z,-3.35
2022-12-18T16:20:57.001Z,-3.32
2022-12-18T16:23:24.335Z,-3.28
2022-12-18T16:25:52.630Z,-3.38
2022-12-18T16:28:19.990Z,-3.37
2022-12-18T16:30:47.326Z,-3.38
2022-12-18T16:33:14.708Z,-3.47
2022-12-18T16:35:42.017Z,-3.64
2022-12-18T16:38:10.304Z,-3.60
2022-12-18T16:40:58.876Z,-3.62
2022-12-18T16:43:26.266Z,-3.65
2022-12-18T16:45:53.566Z,-3.89
2022-12-18T16:48:21.197Z,-3.84
2022-12-18T16:50:48.472Z,-3.91
2022-12-18T16:53:15.748Z,-3.90
2022-12-18T16:55:43.076Z,-3.78
2022-12-18T16:58:11.170Z,-3.85
2022-12-18T17:00:39.191Z,-3.82
2022-12-18T17:03:06.724Z,-3.74
2022-12-18T17:05:35.222Z,-4.01
2022-12-18T17:08:02.591Z,-3.81
2022-12-18T17:10:29.916Z,-4.03
2022-12-18T17:12:57.269Z,-4.29
2022-12-18T17:15:24.530Z,-4.24
2022-12-18T17:17:51.852Z,-4.34
2022-12-18T17:20:19.199Z,-4.44
2022-12-18T17:22:49.501Z,-4.43
2022-12-18T17:25:17.298Z,-4.29
2022-12-18T17:27:44.565Z,-4.47
2022-12-18T17:30:12.291Z,-4.52
2022-12-18T17:32:39.578Z,-4.36
2022-12-18T17:35:07.650Z,-4.58
2022-12-18T17:37:36.082Z,-4.50
2022-12-18T17:40:03.861Z,-4.34
2022-12-18T17:42:31.200Z,-4.39
2022-12-18T17:44:58.459Z,-4.45
2022-12-18T17:47:25.767Z,-4.56
2022-12-18T17:49:53.168Z,-4.47
2022-12-18T17:52:22.045Z,-4.48
2022-12-18T17:54:49.429Z,-4.71
2022-12-18T17:57:16.733Z,-4.24
2022-12-18T17:59:44.114Z,-4.41
2022-12-18T18:02:12.244Z,-4.43
2022-12-18T18:04:39.745Z,-4.27
2022-12-18T18:07:07.136Z,-4.36
2022-12-18T18:09:34.560Z,-4.49
2022-12-18T18:12:20.791Z,-4.51
2022-12-18T18:14:48.164Z,-4.74
2022-12-18T18:17:15.609Z,-4.62
2022-12-18T18:19:44.163Z,-4.76
2022-12-18T18:22:15.276Z,-4.43
2022-12-18T18:24:43.737Z,-4.86
2022-12-18T18:27:11.006Z,-4.67
2022-12-18T18:29:38.601Z,-4.82
2022-12-18T18:32:06.061Z,-5.01
2022-12-18T18:34:33.601Z,-4.99
2022-12-18T18:37:01.716Z,-4.90
2022-12-18T18:39:29.993Z,-5.23
2022-12-18T18:41:57.539Z,-5.09
2022-12-18T18:44:26.100Z,-5.46
2022-12-18T18:46:58.289Z,-4.93
2022-12-18T18:49:27.874Z,-4.94
2022-12-18T18:51:57.331Z,-5.06
2022-12-18T18:54:26.117Z,-5.10
2022-12-18T18:57:19.456Z,-5.22
2022-12-18T18:59:41.353Z,-5.26
2022-12-18T19:02:16.652Z,-5.23
2022-12-18T19:04:46.056Z,-5.19
2022-12-18T19:07:18.515Z,-5.25
2022-12-18T19:10:03.950Z,-5.22
2022-12-18T19:12:52.593Z,-5.27
2022-12-18T19:15:22.215Z,-5.36
2022-12-18T19:17:49.542Z,-5.55
2022-12-18T19:20:17.579Z,-5.36
2022-12-18T19:22:49.013Z,-5.47
2022-12-18T19:25:29.942Z,-5.33
2022-12-18T19:28:07.496Z,-5.14
2022-12-18T19:30:40.922Z,-4.87
2022-12-18T19:33:34.546Z,-5.06
2022-12-18T19:35:55.853Z,-5.30
2022-12-18T19:38:23.364Z,-5.58
2022-12-18T19:40:50.812Z,-5.60
2022-12-18T19:43:18.498Z,-6.08
2022-12-18T19:45:45.865Z,-5.95
2022-12-18T19:48:14.714Z,-5.94
2022-12-18T19:50:42.422Z,-5.78
2022-12-18T19:53:09.810Z,-6.02
2022-12-18T19:55:42.325Z,-6.14
2022-12-18T19:58:12.107Z,-5.99
2022-12-18T20:00:39.615Z,-6.52
2022-12-18T20:03:17.662Z,-6.13
2022-12-18T20:05:50.727Z,-6.26
2022-12-18T20:08:18.026Z,-6.19
2022-12-18T20:10:49.019Z,-6.40
2022-12-18T20:13:16.599Z,-6.30
2022-12-18T20:15:45.513Z,-6.48
2022-12-18T20:18:13.957Z,-6.35
2022-12-18T20:20:45.052Z,-6.06
2022-12-18T20:23:13.509Z,-6.18
2022-12-18T20:25:40.863Z,-6.05
2022-12-18T20:28:08.459Z,-5.99
2022-12-18T20:30:35.841Z,-5.96
2022-12-18T20:33:03.246Z,-6.04
2022-12-18T20:35:32.391Z,-6.42
2022-12-18T20:37:59.871Z,-6.23
2022-12-18T20:40:28.553Z,-6.06
2022-12-18T20:42:55.928Z,-6.35
2022-12-18T20:45:23.654Z,-6.35
2022-12-18T20:47:54.319Z,-6.13
2022-12-18T20:50:21.636Z,-6.32
2022-12-18T20:52:48.972Z,-6.32
2022-12-18T20:55:16.460Z,-6.53
2022-12-18T20:57:43.884Z,-6.45
2022-12-18T21:00:12.368Z,-6.68
2022-12-18T21:02:42.296Z,-6.65
2022-12-18T21:05:09.662Z,-6.59
2022-12-18T21:07:37.069Z,-6.72
2022-12-18T21:10:05.663Z,-6.71
2022-12-18T21:12:44.047Z,-6.43
2022-12-18T21:15:28.547Z,-6.44
2022-12-18T21:17:56.268Z,-6.56
2022-12-18T21:20:25.990Z,-6.55
2022-12-18T21:22:54.058Z,-6.69
2022-12-18T21:25:24.631Z,-6.90
2022-12-18T21:27:51.905Z,-7.05
2022-12-18T21:30:19.457Z,-6.90
2022-12-18T21:32:47.633Z,-6.73
2022-12-18T21:35:15.518Z,-6.97
2022-12-18T21:37:44.608Z,-6.63
2022-12-18T21:40:13.370Z,-6.71
2022-12-18T21:42:59.297Z,-6.87
2022-12-18T21:45:26.833Z,-6.71
2022-12-18T21:47:54.452Z,-6.76
2022-12-18T21:50:21.733Z,-7.00
2022-12-18T21:52:49.057Z,-6.99
2022-12-18T21:55:16.512Z,-6.88
2022-12-18T21:57:43.827Z,-7.17
2022-12-18T22:00:18.299Z,-6.86
2022-12-18T22:02:48.388Z,-7.18
2022-12-18T22:05:30.741Z,-7.11
2022-12-18T22:07:58.074Z,-7.16
2022-12-18T22:10:25.471Z,-7.30
2022-12-18T22:12:55.164Z,-7.21
2022-12-18T22:15:22.545Z,-6.66
2022-12-18T22:17:53.450Z,-6.83
2022-12-18T22:20:29.843Z,-7.11
2022-12-18T22:22:57.830Z,-7.46
2022-12-18T22:25:25.174Z,-7.25
2022-12-18T22:28:10.898Z,-7.36
2022-12-18T22:30:38.492Z,-7.37
2022-12-18T22:33:05.833Z,-7.61
2022-12-18T22:35:33.282Z,-7.15
2022-12-18T22:38:01.835Z,-7.15
2022-12-18T22:40:29.597Z,-7.31
2022-12-18T22:43:02.836Z,-7.37
2022-12-18T22:45:30.192Z,-7.63
2022-12-18T22:47:57.605Z,-7.36
2022-12-18T22:50:24.928Z,-6.95
2022-12-18T22:52:52.278Z,-6.74
2022-12-18T22:55:19.943Z,-6.81
2022-12-18T22:57:48.480Z,-7.03
2022-12-18T23:00:24.330Z,-7.32
2022-12-18T23:03:00.188Z,-7.78
2022-12-18T23:05:29.982Z,-7.14
2022-12-18T23:07:57.648Z,-6.65
2022-12-18T23:10:25.019Z,-6.88
2022-12-18T23:12:52.347Z,-6.86
2022-12-18T23:15:19.871Z,-6.97
2022-12-18T23:17:59.548Z,-6.95
2022-12-18T23:20:27.723Z,-7.14
2022-12-18T23:22:55.050Z,-6.99
2022-12-18T23:25:22.401Z,-6.63
2022-12-18T23:27:49.765Z,-6.60
2022-12-18T23:30:17.125Z,-6.44
2022-12-18T23:32:44.683Z,-6.30
2022-12-18T23:35:15.586Z,-6.36
2022-12-18T23:38:00.496Z,-6.39
2022-12-18T23:40:29.842Z,-6.55
2022-12-18T23:42:58.581Z,-6.54
2022-12-18T23:45:25.955Z,-6.40
2022-12-18T23:47:53.209Z,-6.33
2022-12-18T23:50:22.095Z,-6.25
2022-12-18T23:52:56.507Z,-6.27
2022-12-18T23:55:28.250Z,-6.43
2022-12-18T23:57:55.730Z,-6.14
